Time;durP1;ratioP1;P1;durP2;ratioP2;P2;SDS_P1;SDS_P2;PMS_P1;PMS_P2;Temp;Humidity;BMP_temperature;BMP_pressure;BME280_temperature;BME280_humidity;BME280_pressure;Samples;Min_cycle;Max_cycle;Signal;HPM_P1;HPM_P2
2024/01/09 00:00:50;;;;;;;9.20;3.60;;;-1.50;99.90;;;;;;5092464;28;20131;-77
2024/01/09 00:03:15;;;;;;;8.70;3.00;;;-1.60;99.90;;;;;;5093395;28;20429;-77
2024/01/09 00:05:41;;;;;;;8.27;3.40;;;-1.60;99.90;;;;;;5092722;28;20139;-77
2024/01/09 00:08:07;;;;;;;7.57;3.30;;;-1.60;99.90;;;;;;5092363;28;20055;-77
2024/01/09 00:10:33;;;;;;;7.33;3.27;;;-1.60;99.90;;;;;;5093438;28;20130;-77
2024/01/09 00:12:59;;;;;;;8.10;3.03;;;-1.60;99.90;;;;;;5093278;28;20117;-77
2024/01/09 00:15:25;;;;;;;7.15;3.35;;;-1.50;99.90;;;;;;5093252;28;20468;-77
2024/01/09 00:17:51;;;;;;;6.60;3.27;;;-1.70;99.90;;;;;;5093470;28;20130;-76
2024/01/09 00:20:17;;;;;;;6.43;3.08;;;-1.70;99.90;;;;;;5093180;28;20083;-77
2024/01/09 00:22:43;;;;;;;8.75;3.50;;;-1.70;99.90;;;;;;5093326;28;20129;-76
2024/01/09 00:25:09;;;;;;;7.13;3.30;;;-1.70;99.90;;;;;;5093104;28;20489;-76
2024/01/09 00:27:35;;;;;;;7.63;3.43;;;-1.70;99.90;;;;;;5093268;28;20083;-76
2024/01/09 00:30:02;;;;;;;8.98;3.90;;;-1.60;99.90;;;;;;5092905;28;20113;-76
2024/01/09 00:32:28;;;;;;;8.85;3.70;;;-1.70;99.90;;;;;;5093156;28;20054;-76
2024/01/09 00:34:53;;;;;;;7.70;3.67;;;-1.80;99.90;;;;;;5093027;28;20047;-76
2024/01/09 00:37:19;;;;;;;9.20;3.27;;;-1.80;99.90;;;;;;5092983;28;20048;-76
2024/01/09 00:39:45;;;;;;;7.00;3.53;;;-1.70;99.90;;;;;;5092371;28;20062;-77
2024/01/09 00:42:11;;;;;;;6.97;3.03;;;-1.70;99.90;;;;;;5092894;28;20075;-76
2024/01/09 00:44:36;;;;;;;8.83;3.57;;;-1.70;99.90;;;;;;5092676;28;20138;-77
2024/01/09 00:47:02;;;;;;;8.23;3.30;;;-1.80;99.90;;;;;;5091103;28;20433;-77
2024/01/09 00:49:28;;;;;;;5.73;2.50;;;-1.80;99.90;;;;;;5090764;28;20410;-76
2024/01/09 00:51:54;;;;;;;7.80;3.50;;;-1.80;99.90;;;;;;5090897;28;20420;-76
2024/01/09 00:54:20;;;;;;;8.80;3.20;;;-1.70;99.90;;;;;;5090683;28;20097;-76
2024/01/09 00:56:46;;;;;;;6.33;3.13;;;-1.80;99.90;;;;;;5090820;28;20044;-76
2024/01/09 00:59:11;;;;;;;7.77;3.10;;;-1.80;99.90;;;;;;5090582;28;20554;-76
2024/01/09 01:01:37;;;;;;;7.20;3.30;;;-1.90;99.90;;;;;;5091510;28;20679;-76
2024/01/09 01:04:03;;;;;;;7.23;3.30;;;-1.90;99.90;;;;;;5096702;28;20044;-76
2024/01/09 01:06:29;;;;;;;7.73;3.63;;;-1.90;99.90;;;;;;5096707;28;20508;-76
2024/01/09 01:08:54;;;;;;;8.70;4.00;;;-2.00;99.90;;;;;;5095854;28;20117;-76
2024/01/09 01:11:20;;;;;;;7.13;3.47;;;-2.10;99.90;;;;;;5096564;28;20044;-76
2024/01/09 01:13:46;;;;;;;6.33;2.87;;;-1.90;99.90;;;;;;5096501;28;20066;-76
2024/01/09 01:16:12;;;;;;;6.07;3.03;;;-2.00;99.90;;;;;;5096723;28;20397;-76
2024/01/09 01:18:38;;;;;;;7.93;3.33;;;-2.00;99.90;;;;;;5096899;28;20043;-76
2024/01/09 01:21:04;;;;;;;6.95;3.38;;;-1.90;99.90;;;;;;5095586;28;20059;-76
2024/01/09 01:23:30;;;;;;;6.30;3.33;;;-1.90;99.90;;;;;;5096267;28;20044;-76
2024/01/09 01:25:56;;;;;;;6.10;3.60;;;-2.00;99.90;;;;;;5096468;28;20148;-76
2024/01/09 01:28:21;;;;;;;9.27;3.33;;;-2.00;99.90;;;;;;5096130;28;20416;-75
2024/01/09 01:30:47;;;;;;;8.23;3.13;;;-1.90;99.90;;;;;;5096330;28;20044;-76
2024/01/09 01:33:13;;;;;;;6.43;3.07;;;-1.90;99.90;;;;;;5095009;28;20385;-75
2024/01/09 01:35:38;;;;;;;7.70;3.03;;;-1.90;99.90;;;;;;5096408;28;20040;-75
2024/01/09 01:38:04;;;;;;;6.37;3.07;;;-2.00;99.90;;;;;;5096312;28;20440;-75
2024/01/09 01:40:30;;;;;;;8.87;3.93;;;-2.00;99.90;;;;;;5095935;28;20055;-75
2024/01/09 01:42:57;;;;;;;7.43;3.73;;;-2.00;99.90;;;;;;5096011;28;20040;-75
2024/01/09 01:45:24;;;;;;;7.25;3.30;;;-2.00;99.90;;;;;;5095776;28;20087;-75
2024/01/09 01:47:51;;;;;;;9.07;3.50;;;-2.00;99.90;;;;;;5096156;28;20056;-75
2024/01/09 01:50:16;;;;;;;7.93;3.72;;;-2.00;99.90;;;;;;5095977;28;20060;-75
2024/01/09 01:52:45;;;;;;;7.57;2.90;;;-2.10;99.90;;;;;;5095988;28;20510;-75
2024/01/09 01:55:11;;;;;;;7.57;2.92;;;-2.10;99.90;;;;;;5095827;28;20118;-75
2024/01/09 01:57:38;;;;;;;7.45;3.33;;;-2.10;99.90;;;;;;5094757;28;20055;-75
2024/01/09 02:00:05;;;;;;;7.22;3.03;;;-2.00;99.90;;;;;;5095938;28;20044;-75
2024/01/09 02:02:31;;;;;;;8.45;3.15;;;-2.10;99.90;;;;;;5095655;28;20056;-75
2024/01/09 02:04:57;;;;;;;6.67;3.33;;;-2.00;99.90;;;;;;5095848;28;20044;-75
2024/01/09 02:07:26;;;;;;;6.20;3.42;;;-2.10;99.90;;;;;;5095394;28;20052;-75
2024/01/09 02:09:53;;;;;;;6.63;3.20;;;-2.10;99.90;;;;;;5095771;28;20083;-74
2024/01/09 02:12:19;;;;;;;6.63;3.20;;;-2.10;99.90;;;;;;5095131;28;20122;-74
2024/01/09 02:14:46;;;;;;;6.53;3.50;;;-2.10;99.90;;;;;;5094956;28;20059;-75
2024/01/09 02:17:13;;;;;;;9.05;3.25;;;-2.20;99.90;;;;;;5095742;28;20052;-74
2024/01/09 02:19:39;;;;;;;7.75;3.65;;;-2.20;99.90;;;;;;5095487;28;20055;-74
2024/01/09 02:22:05;;;;;;;6.63;3.30;;;-2.20;99.90;;;;;;5095365;28;20119;-74
2024/01/09 02:24:30;;;;;;;8.40;3.50;;;-2.20;99.90;;;;;;5095102;28;20098;-74
2024/01/09 02:27:18;;;;;;;6.40;3.23;;;-2.30;99.90;;;;;;5095260;28;20083;-75
2024/01/09 02:29:50;;;;;;;6.05;3.28;;;-2.20;99.90;;;;;;5095426;28;20486;-74
2024/01/09 02:32:17;;;;;;;8.30;3.53;;;-2.30;99.90;;;;;;5093994;28;20130;-74
2024/01/09 02:34:45;;;;;;;8.55;3.70;;;-2.20;99.90;;;;;;5095188;28;20044;-75
2024/01/09 02:37:11;;;;;;;8.68;3.15;;;-2.30;99.90;;;;;;5095033;28;20043;-74
2024/01/09 02:39:37;;;;;;;11.27;3.67;;;-2.30;99.90;;;;;;5094957;28;20127;-75
2024/01/09 02:42:03;;;;;;;7.50;3.22;;;-2.40;99.90;;;;;;5095223;28;20052;-75
2024/01/09 02:44:29;;;;;;;6.55;3.00;;;-2.40;99.90;;;;;;5094530;28;20401;-74
2024/01/09 02:46:54;;;;;;;8.03;3.50;;;-2.30;99.90;;;;;;5093349;28;20059;-74
2024/01/09 02:49:20;;;;;;;7.73;3.40;;;-2.30;99.90;;;;;;5092499;28;20130;-74
2024/01/09 02:51:46;;;;;;;5.87;2.87;;;-2.40;99.90;;;;;;5092597;28;20051;-74
2024/01/09 02:54:12;;;;;;;8.37;3.87;;;-2.40;99.90;;;;;;5092822;28;20056;-74
2024/01/09 02:56:37;;;;;;;7.90;3.23;;;-2.30;99.90;;;;;;5091696;28;20044;-74
2024/01/09 02:59:03;;;;;;;8.23;3.43;;;-2.40;99.90;;;;;;5093119;28;20115;-74
2024/01/09 03:01:29;;;;;;;7.97;3.30;;;-2.40;99.90;;;;;;5092626;28;20486;-74
2024/01/09 03:03:55;;;;;;;7.27;3.37;;;-2.40;99.90;;;;;;5092580;28;20117;-74
2024/01/09 03:06:20;;;;;;;7.47;3.17;;;-2.40;99.90;;;;;;5094253;28;20044;-74
2024/01/09 03:08:48;;;;;;;7.50;3.00;;;-2.40;99.90;;;;;;5094802;28;20405;-74
2024/01/09 03:11:17;;;;;;;6.10;2.90;;;-2.30;99.90;;;;;;5094292;28;20561;-74
2024/01/09 03:13:42;;;;;;;6.57;3.63;;;-2.40;99.90;;;;;;5094200;28;20036;-74
2024/01/09 03:16:12;;;;;;;7.57;3.17;;;-2.40;99.90;;;;;;5094330;28;20120;-74
2024/01/09 03:18:39;;;;;;;8.60;3.15;;;-2.40;99.90;;;;;;5094147;28;20086;-74
2024/01/09 03:21:04;;;;;;;7.30;3.30;;;-2.50;99.90;;;;;;5094306;28;20040;-74
2024/01/09 03:23:32;;;;;;;6.47;3.00;;;-2.50;99.90;;;;;;5094108;28;20040;-74
2024/01/09 03:25:58;;;;;;;9.02;3.55;;;-2.40;99.90;;;;;;5093495;28;20048;-74
2024/01/09 03:28:25;;;;;;;7.60;3.17;;;-2.50;99.90;;;;;;5094089;28;20051;-74
2024/01/09 03:30:50;;;;;;;6.45;2.45;;;-2.60;99.90;;;;;;5094009;28;20055;-74
2024/01/09 03:33:16;;;;;;;8.97;3.30;;;-2.60;99.90;;;;;;5093917;28;20044;-74
2024/01/09 03:35:42;;;;;;;8.33;3.03;;;-2.50;99.90;;;;;;5093781;28;20052;-74
2024/01/09 03:38:08;;;;;;;6.33;3.17;;;-2.50;99.90;;;;;;5094241;28;20478;-74
2024/01/09 03:40:35;;;;;;;7.13;3.03;;;-2.60;99.90;;;;;;5093817;28;20040;-74
2024/01/09 03:43:01;;;;;;;8.70;3.10;;;-2.50;99.90;;;;;;5093959;28;20073;-73
2024/01/09 03:45:27;;;;;;;7.15;3.28;;;-2.40;99.90;;;;;;5093343;28;20501;-73
2024/01/09 03:47:53;;;;;;;6.20;2.60;;;-2.50;99.90;;;;;;5092446;28;20047;-74
2024/01/09 03:50:18;;;;;;;6.53;2.80;;;-2.50;99.90;;;;;;5093628;28;20044;-74
2024/01/09 03:52:44;;;;;;;7.23;3.17;;;-2.50;99.90;;;;;;5092571;28;20044;-74
2024/01/09 03:55:10;;;;;;;9.03;3.30;;;-2.50;99.90;;;;;;5093941;28;20052;-74
2024/01/09 03:57:35;;;;;;;7.37;3.23;;;-2.50;99.90;;;;;;5093545;28;20062;-74
2024/01/09 04:00:01;;;;;;;6.97;3.10;;;-2.50;99.90;;;;;;5092711;28;20051;-74
2024/01/09 04:02:27;;;;;;;8.00;3.33;;;-2.50;99.90;;;;;;5093313;28;20136;-74
2024/01/09 04:04:53;;;;;;;12.60;3.67;;;-2.60;99.90;;;;;;5092418;28;20055;-74
2024/01/09 04:07:19;;;;;;;5.87;2.50;;;-2.60;99.90;;;;;;5093338;28;20385;-74
2024/01/09 04:09:45;;;;;;;8.60;3.78;;;-2.70;99.90;;;;;;5093125;28;20134;-74
2024/01/09 04:12:10;;;;;;;7.57;3.10;;;-2.60;99.90;;;;;;5093574;28;20127;-73
2024/01/09 04:14:36;;;;;;;6.33;3.10;;;-2.60;99.90;;;;;;5093044;28;20139;-74
2024/01/09 04:17:02;;;;;;;6.10;2.73;;;-2.60;99.90;;;;;;5093459;28;20055;-74
2024/01/09 04:19:27;;;;;;;8.37;3.33;;;-2.60;99.90;;;;;;5091989;28;20554;-74
2024/01/09 04:21:53;;;;;;;6.27;3.00;;;-2.60;99.90;;;;;;5093606;28;20517;-73
2024/01/09 04:24:19;;;;;;;7.87;3.50;;;-2.60;99.90;;;;;;5093506;28;20040;-74
2024/01/09 04:26:44;;;;;;;6.10;3.10;;;-2.60;99.90;;;;;;5093156;28;20478;-73
2024/01/09 04:29:10;;;;;;;7.03;2.97;;;-2.60;99.90;;;;;;5093306;28;20509;-73
2024/01/09 04:31:36;;;;;;;7.63;2.93;;;-2.60;99.90;;;;;;5093032;28;20047;-73
2024/01/09 04:34:02;;;;;;;5.70;2.60;;;-2.70;99.90;;;;;;5093016;28;20123;-74
2024/01/09 04:36:28;;;;;;;7.47;2.90;;;-2.60;99.90;;;;;;5093568;28;20062;-74
2024/01/09 04:38:54;;;;;;;6.75;3.22;;;-2.70;99.90;;;;;;5099877;28;20489;-73
2024/01/09 04:41:19;;;;;;;8.40;2.97;;;-2.60;99.90;;;;;;5099913;28;20040;-73
2024/01/09 04:43:46;;;;;;;6.53;3.07;;;-2.70;99.90;;;;;;5099621;28;20101;-74
2024/01/09 04:46:12;;;;;;;6.85;3.10;;;-2.70;99.90;;;;;;5099700;28;20055;-73
2024/01/09 04:48:37;;;;;;;10.07;3.45;;;-2.70;99.90;;;;;;5099537;28;20548;-74
2024/01/09 04:51:03;;;;;;;8.87;2.80;;;-2.80;99.90;;;;;;5099930;28;20130;-73
2024/01/09 04:53:29;;;;;;;5.37;3.03;;;-2.80;99.90;;;;;;5099799;28;20040;-74
2024/01/09 04:55:55;;;;;;;6.97;3.00;;;-2.80;99.90;;;;;;5100143;28;20130;-73
2024/01/09 04:58:20;;;;;;;8.57;3.07;;;-2.80;99.90;;;;;;5098762;28;20507;-73
2024/01/09 05:00:49;;;;;;;6.70;3.17;;;-2.80;99.90;;;;;;5099367;28;20048;-73
2024/01/09 05:03:14;;;;;;;7.22;2.75;;;-2.90;99.90;;;;;;5099447;28;20040;-73
2024/01/09 05:05:40;;;;;;;7.23;3.20;;;-2.80;99.90;;;;;;5099542;28;20048;-73
2024/01/09 05:08:06;;;;;;;6.97;3.20;;;-2.80;99.90;;;;;;5099721;28;20087;-73
2024/01/09 05:10:31;;;;;;;6.73;3.07;;;-2.90;99.90;;;;;;5099376;28;20493;-74
2024/01/09 05:12:58;;;;;;;8.03;3.03;;;-2.90;99.90;;;;;;5099404;28;20043;-73
2024/01/09 05:15:24;;;;;;;8.93;2.92;;;-2.90;99.90;;;;;;5099553;28;20048;-74
2024/01/09 05:17:49;;;;;;;6.00;3.20;;;-2.80;99.90;;;;;;5099127;28;20096;-73
2024/01/09 05:20:16;;;;;;;6.80;3.17;;;-2.90;99.90;;;;;;5099669;28;20051;-73
2024/01/09 05:22:41;;;;;;;7.10;3.25;;;-2.80;99.90;;;;;;5099143;28;20040;-73
2024/01/09 05:25:08;;;;;;;6.90;3.20;;;-2.90;99.90;;;;;;5099503;28;20161;-73
2024/01/09 05:27:34;;;;;;;9.55;3.70;;;-2.90;99.90;;;;;;5099152;28;20090;-73
2024/01/09 05:30:00;;;;;;;7.00;3.30;;;-2.90;99.90;;;;;;5099331;28;20043;-73
2024/01/09 05:32:25;;;;;;;6.47;2.87;;;-3.00;99.90;;;;;;5099147;28;20044;-74
2024/01/09 05:34:52;;;;;;;7.63;3.17;;;-3.00;99.90;;;;;;5099241;28;20090;-74
2024/01/09 05:37:18;;;;;;;6.68;3.47;;;-3.00;99.90;;;;;;5099376;28;20048;-73
2024/01/09 05:39:47;;;;;;;7.17;2.90;;;-3.00;99.90;;;;;;5099045;28;20048;-74
2024/01/09 05:42:12;;;;;;;6.75;3.35;;;-2.90;99.90;;;;;;5099153;28;20050;-74
2024/01/09 05:44:38;;;;;;;6.77;3.23;;;-3.00;99.90;;;;;;5099043;28;20126;-74
2024/01/09 05:47:04;;;;;;;7.10;3.00;;;-2.90;99.90;;;;;;5099239;28;20098;-73
2024/01/09 05:49:30;;;;;;;6.63;3.07;;;-3.00;99.90;;;;;;5094784;28;20109;-73
2024/01/09 05:51:56;;;;;;;9.57;3.40;;;-3.00;99.90;;;;;;5094657;28;20048;-74
2024/01/09 05:54:22;;;;;;;6.80;2.80;;;-3.10;99.90;;;;;;5095995;28;20044;-73
2024/01/09 05:56:48;;;;;;;7.55;3.20;;;-3.00;99.90;;;;;;5095805;28;20302;-74
2024/01/09 05:59:15;;;;;;;6.70;3.17;;;-3.10;99.90;;;;;;5095885;28;20044;-74
2024/01/09 06:01:40;;;;;;;7.55;3.03;;;-3.00;99.90;;;;;;5095466;28;20486;-73
2024/01/09 06:04:06;;;;;;;6.40;3.60;;;-3.20;99.90;;;;;;5095862;28;20040;-73
2024/01/09 06:06:32;;;;;;;6.67;2.90;;;-3.10;99.90;;;;;;5095927;28;20040;-73
2024/01/09 06:08:58;;;;;;;7.30;2.93;;;-3.20;99.90;;;;;;5095622;28;20421;-73
2024/01/09 06:11:23;;;;;;;6.20;3.30;;;-3.10;99.90;;;;;;5095681;28;20516;-73
2024/01/09 06:13:49;;;;;;;8.53;3.67;;;-3.10;99.90;;;;;;5094089;28;20048;-73
2024/01/09 06:16:15;;;;;;;7.77;3.27;;;-3.20;99.90;;;;;;5095475;28;20048;-73
2024/01/09 06:18:40;;;;;;;7.33;3.87;;;-3.20;99.90;;;;;;5095457;28;20109;-73
2024/01/09 06:21:06;;;;;;;7.20;3.70;;;-3.10;99.90;;;;;;5095899;28;20141;-73
2024/01/09 06:23:32;;;;;;;6.70;3.27;;;-3.20;99.90;;;;;;5095550;28;20055;-73
2024/01/09 06:25:57;;;;;;;6.20;3.20;;;-3.20;99.90;;;;;;5095179;28;20044;-73
2024/01/09 06:28:23;;;;;;;7.37;2.90;;;-3.10;99.90;;;;;;5094398;28;20054;-73
2024/01/09 06:30:49;;;;;;;6.57;3.40;;;-3.20;99.90;;;;;;5094846;28;20052;-74
2024/01/09 06:33:15;;;;;;;9.55;4.03;;;-3.20;99.90;;;;;;5095274;28;20473;-74
2024/01/09 06:35:41;;;;;;;8.07;3.70;;;-3.30;99.90;;;;;;5095134;28;20097;-75
2024/01/09 06:38:07;;;;;;;6.30;3.30;;;-3.30;99.90;;;;;;5094241;28;20044;-74
2024/01/09 06:40:33;;;;;;;9.35;3.70;;;-3.20;99.90;;;;;;5095140;28;20048;-72
2024/01/09 06:42:59;;;;;;;6.80;3.50;;;-3.20;99.90;;;;;;5093867;28;20438;-72
2024/01/09 06:45:24;;;;;;;9.93;3.40;;;-3.20;99.90;;;;;;5094392;28;20036;-71
2024/01/09 06:47:50;;;;;;;8.13;3.33;;;-3.20;99.90;;;;;;5094853;28;20174;-72
2024/01/09 06:50:16;;;;;;;7.97;3.17;;;-3.30;99.90;;;;;;5095028;28;20127;-72
2024/01/09 06:52:41;;;;;;;7.53;3.20;;;-3.30;99.90;;;;;;5094761;28;20055;-72
2024/01/09 06:55:07;;;;;;;9.40;3.43;;;-3.20;99.90;;;;;;5094765;28;20047;-72
2024/01/09 06:57:33;;;;;;;7.37;3.53;;;-3.30;99.90;;;;;;5093591;28;20109;-71
2024/01/09 06:59:59;;;;;;;8.00;2.90;;;-3.30;99.90;;;;;;5094301;28;20044;-72
2024/01/09 07:02:24;;;;;;;8.53;3.77;;;-3.30;99.90;;;;;;5095059;28;20074;-72
2024/01/09 07:04:50;;;;;;;6.70;3.30;;;-3.30;99.90;;;;;;5094620;28;20044;-72
2024/01/09 07:07:15;;;;;;;6.63;3.30;;;-3.30;99.90;;;;;;5094865;28;20542;-72
2024/01/09 07:09:41;;;;;;;11.07;4.17;;;-3.40;99.90;;;;;;5094540;28;20055;-72
2024/01/09 07:12:09;;;;;;;5.77;2.93;;;-3.40;99.90;;;;;;5093240;28;20040;-72
2024/01/09 07:14:36;;;;;;;8.38;3.35;;;-3.40;99.90;;;;;;5076457;28;20584;-72
2024/01/09 07:17:03;;;;;;;6.22;3.33;;;-3.50;99.90;;;;;;5094282;28;20122;-72
2024/01/09 07:19:30;;;;;;;6.57;2.97;;;-3.40;99.90;;;;;;5094390;28;20048;-72
2024/01/09 07:21:56;;;;;;;7.90;3.35;;;-3.40;99.90;;;;;;5094160;28;20055;-72
2024/01/09 07:24:22;;;;;;;6.97;3.22;;;-3.40;99.90;;;;;;5094343;28;20040;-72
2024/01/09 07:26:48;;;;;;;6.50;2.80;;;-3.40;99.90;;;;;;5094026;28;20104;-72
2024/01/09 07:29:16;;;;;;;6.03;3.30;;;-3.40;99.90;;;;;;5094099;28;20121;-72
2024/01/09 07:31:45;;;;;;;8.60;3.15;;;-3.40;99.90;;;;;;5094206;28;20052;-71
2024/01/09 07:34:11;;;;;;;7.13;3.28;;;-3.50;99.90;;;;;;5093927;28;20040;-72
2024/01/09 07:36:37;;;;;;;7.57;3.30;;;-3.40;99.90;;;;;;5094099;28;20508;-72
2024/01/09 07:39:05;;;;;;;6.90;3.70;;;-3.40;99.90;;;;;;5093737;28;20055;-71
2024/01/09 07:41:31;;;;;;;6.88;3.33;;;-3.50;99.90;;;;;;5092985;28;20405;-72
2024/01/09 07:43:57;;;;;;;7.00;3.40;;;-3.50;99.90;;;;;;5093556;28;20044;-72
2024/01/09 07:46:22;;;;;;;7.90;3.47;;;-3.50;99.90;;;;;;5094235;28;20056;-72
2024/01/09 07:48:48;;;;;;;7.33;3.30;;;-3.50;99.90;;;;;;5093841;28;20094;-74
2024/01/09 07:51:14;;;;;;;8.87;3.60;;;-3.50;99.90;;;;;;5093963;28;20054;-72
2024/01/09 07:53:40;;;;;;;7.60;3.47;;;-3.50;99.90;;;;;;5093701;28;20478;-72
2024/01/09 07:56:19;;;;;;;8.70;3.43;;;-3.50;99.90;;;;;;5093391;28;20090;-72
2024/01/09 07:58:45;;;;;;;7.88;3.55;;;-3.50;99.90;;;;;;5093644;28;20127;-71
2024/01/09 08:01:14;;;;;;;10.23;3.30;;;-3.50;99.90;;;;;;5093438;28;20189;-71
2024/01/09 08:03:40;;;;;;;6.43;2.90;;;-3.50;99.90;;;;;;5093787;28;20123;-70
2024/01/09 08:06:13;;;;;;;7.18;3.08;;;-3.50;99.90;;;;;;5093311;28;20048;-72
2024/01/09 08:08:39;;;;;;;7.97;3.15;;;-3.50;99.90;;;;;;5093476;28;20047;-72
2024/01/09 08:11:05;;;;;;;11.70;4.43;;;-3.40;99.90;;;;;;5093240;28;20486;-71
2024/01/09 08:13:32;;;;;;;7.73;3.50;;;-3.30;99.90;;;;;;5092993;28;20429;-71
2024/01/09 08:15:57;;;;;;;7.38;3.22;;;-3.50;99.90;;;;;;5092440;28;20292;-72
2024/01/09 08:18:23;;;;;;;9.73;4.53;;;-3.40;99.90;;;;;;5093315;28;20477;-72
2024/01/09 08:20:49;;;;;;;9.73;5.17;;;-3.40;99.90;;;;;;5093324;28;20055;-72
2024/01/09 08:23:16;;;;;;;10.40;4.40;;;-3.50;99.90;;;;;;5091825;28;20508;-71
2024/01/09 08:25:42;;;;;;;7.60;3.72;;;-3.50;99.90;;;;;;5093089;28;20052;-71
2024/01/09 08:28:08;;;;;;;6.43;2.85;;;-3.50;99.90;;;;;;5093189;28;20048;-71
2024/01/09 08:30:34;;;;;;;6.03;3.10;;;-3.50;99.90;;;;;;5093297;28;20129;-71
2024/01/09 08:33:00;;;;;;;9.73;3.63;;;-3.40;99.90;;;;;;5091841;28;20449;-71
2024/01/09 08:35:26;;;;;;;7.80;3.20;;;-3.40;99.90;;;;;;5093090;28;20044;-72
2024/01/09 08:37:51;;;;;;;8.60;3.43;;;-3.40;99.90;;;;;;5092996;28;20048;-71
2024/01/09 08:40:17;;;;;;;8.40;3.50;;;-3.40;99.90;;;;;;5092892;28;20048;-72
2024/01/09 08:42:43;;;;;;;7.73;3.17;;;-3.40;99.90;;;;;;5093198;28;20048;-71
2024/01/09 08:45:09;;;;;;;7.33;3.10;;;-3.40;99.90;;;;;;5092985;28;20080;-71
2024/01/09 08:47:35;;;;;;;8.50;3.50;;;-3.30;99.90;;;;;;5093032;28;20078;-71
2024/01/09 08:50:02;;;;;;;6.50;3.38;;;-3.30;99.90;;;;;;5092776;28;20105;-71
2024/01/09 08:52:27;;;;;;;6.78;3.17;;;-3.30;99.90;;;;;;5092915;28;20551;-71
2024/01/09 08:54:54;;;;;;;8.67;3.37;;;-3.30;99.90;;;;;;5092770;28;20048;-71
2024/01/09 08:57:22;;;;;;;7.18;3.60;;;-3.30;99.90;;;;;;5092825;28;20144;-70
2024/01/09 08:59:48;;;;;;;7.15;3.47;;;-3.30;99.90;;;;;;5092887;28;20094;-71
2024/01/09 09:02:14;;;;;;;6.53;3.00;;;-3.30;99.90;;;;;;5092718;28;20036;-71
2024/01/09 09:04:41;;;;;;;9.07;3.03;;;-3.20;99.90;;;;;;5092847;28;20054;-70
2024/01/09 09:07:07;;;;;;;6.75;3.45;;;-3.20;99.90;;;;;;5092720;28;20055;-70
2024/01/09 09:09:35;;;;;;;6.55;3.40;;;-3.10;99.90;;;;;;5092976;28;20055;-71
2024/01/09 09:12:02;;;;;;;7.45;3.58;;;-3.10;99.90;;;;;;5092841;28;20127;-71
2024/01/09 09:14:28;;;;;;;7.38;3.65;;;-3.00;99.90;;;;;;5092782;28;20050;-71
2024/01/09 09:16:53;;;;;;;6.77;3.67;;;-3.00;99.90;;;;;;5092690;28;20135;-70
2024/01/09 09:19:22;;;;;;;8.30;3.70;;;-3.00;99.90;;;;;;5092429;28;20048;-71
2024/01/09 09:21:52;;;;;;;8.73;3.60;;;-2.90;99.90;;;;;;5092484;28;20440;-71
2024/01/09 09:24:17;;;;;;;9.02;3.40;;;-3.00;99.90;;;;;;5093851;28;20490;-72
2024/01/09 09:26:44;;;;;;;6.17;3.30;;;-3.00;99.90;;;;;;5096754;28;20069;-71
2024/01/09 09:29:10;;;;;;;8.25;3.70;;;-2.90;99.90;;;;;;5096264;28;20048;-72
2024/01/09 09:31:35;;;;;;;8.80;4.10;;;-2.90;99.90;;;;;;5096225;28;20127;-71
2024/01/09 09:34:01;;;;;;;8.20;4.07;;;-2.80;99.90;;;;;;5096229;28;20177;-71
2024/01/09 09:36:27;;;;;;;7.40;3.60;;;-2.90;99.90;;;;;;5096308;28;20626;-71
2024/01/09 09:38:53;;;;;;;7.00;3.40;;;-2.90;99.90;;;;;;5095488;28;20161;-71
2024/01/09 09:41:22;;;;;;;7.05;3.42;;;-2.80;99.90;;;;;;5096038;28;20493;-71
2024/01/09 09:43:58;;;;;;;7.68;3.50;;;-2.70;99.90;;;;;;5095511;28;20032;-72
2024/01/09 09:46:28;;;;;;;8.02;3.72;;;-2.60;99.90;;;;;;5095410;28;20523;-72
2024/01/09 09:48:55;;;;;;;9.70;5.00;;;-2.70;99.90;;;;;;5095940;28;20054;-71
2024/01/09 09:51:21;;;;;;;9.05;3.53;;;-2.60;99.90;;;;;;5095964;28;20036;-72
2024/01/09 09:53:47;;;;;;;6.60;2.95;;;-2.60;99.90;;;;;;5095953;28;20048;-72
2024/01/09 09:56:13;;;;;;;6.55;3.45;;;-2.50;99.90;;;;;;5095727;28;20040;-73
2024/01/09 09:58:40;;;;;;;6.10;3.05;;;-2.50;99.90;;;;;;5095843;28;20141;-72
2024/01/09 10:01:09;;;;;;;6.47;2.97;;;-2.40;99.90;;;;;;5095662;28;20048;-72
2024/01/09 10:03:35;;;;;;;6.93;3.50;;;-2.40;99.90;;;;;;5095586;28;20040;-71
2024/01/09 10:06:05;;;;;;;7.40;3.63;;;-2.30;99.90;;;;;;5095958;28;20482;-72
2024/01/09 10:08:33;;;;;;;6.50;3.00;;;-2.30;99.90;;;;;;5095852;28;20044;-73
2024/01/09 10:11:00;;;;;;;6.95;3.00;;;-2.30;99.90;;;;;;5095709;28;20136;-74
2024/01/09 10:13:25;;;;;;;8.40;3.22;;;-2.10;99.90;;;;;;5095321;28;20514;-74
2024/01/09 10:15:59;;;;;;;7.17;3.10;;;-2.00;99.90;;;;;;5095557;28;20071;-75
2024/01/09 10:18:29;;;;;;;6.85;3.47;;;-2.10;99.90;;;;;;5095431;28;20113;-75
2024/01/09 10:20:57;;;;;;;8.70;3.83;;;-2.10;99.90;;;;;;5095624;28;20048;-76
2024/01/09 10:23:23;;;;;;;8.25;3.78;;;-2.10;99.90;;;;;;5094382;28;20481;-75
2024/01/09 10:25:50;;;;;;;8.02;3.00;;;-2.10;99.90;;;;;;5095517;28;20098;-75
2024/01/09 10:28:19;;;;;;;6.32;2.83;;;-2.00;99.90;;;;;;5095203;28;20070;-73
2024/01/09 10:30:45;;;;;;;6.05;3.05;;;-2.00;99.90;;;;;;5095304;28;20505;-75
2024/01/09 10:33:14;;;;;;;6.70;3.08;;;-1.90;99.90;;;;;;5094994;28;20040;-75
2024/01/09 10:35:41;;;;;;;7.85;3.60;;;-1.80;99.90;;;;;;5094607;28;20054;-74
2024/01/09 10:38:09;;;;;;;8.00;3.25;;;-1.80;99.90;;;;;;5095118;28;20127;-76
2024/01/09 10:40:36;;;;;;;10.60;3.90;;;-1.70;99.90;;;;;;5094968;28;20401;-70
2024/01/09 10:43:02;;;;;;;6.95;3.28;;;-1.70;99.90;;;;;;5094874;28;20040;-71
2024/01/09 10:45:29;;;;;;;8.63;3.73;;;-1.70;99.90;;;;;;5094654;28;20058;-72
2024/01/09 10:47:58;;;;;;;7.70;3.33;;;-1.70;99.90;;;;;;5094646;28;20119;-73
2024/01/09 10:50:25;;;;;;;7.40;3.78;;;-1.60;99.90;;;;;;5093478;28;20509;-73
2024/01/09 10:52:51;;;;;;;8.63;2.65;;;-1.70;99.90;;;;;;5092436;28;20568;-73
2024/01/09 10:55:20;;;;;;;7.63;2.85;;;-1.60;99.90;;;;;;5092377;28;20565;-74
2024/01/09 10:57:47;;;;;;;6.03;2.85;;;-1.50;99.90;;;;;;5091471;28;20397;-74
2024/01/09 11:00:13;;;;;;;7.20;3.03;;;-1.40;99.90;;;;;;5093110;28;20052;-73
2024/01/09 11:02:40;;;;;;;5.93;2.50;;;-1.40;99.90;;;;;;5093062;28;20044;-73
2024/01/09 11:05:07;;;;;;;6.93;2.88;;;-1.40;99.90;;;;;;5092042;28;20465;-74
2024/01/09 11:07:33;;;;;;;6.13;3.03;;;-1.40;99.90;;;;;;5094464;28;20052;-74
2024/01/09 11:10:00;;;;;;;6.47;2.95;;;-1.30;99.90;;;;;;5093375;28;20101;-74
2024/01/09 11:12:31;;;;;;;5.75;2.88;;;-1.40;99.90;;;;;;5094156;28;20117;-73
2024/01/09 11:15:16;;;;;;;6.65;2.63;;;-1.30;99.90;;;;;;5094581;28;20044;-73
2024/01/09 11:17:45;;;;;;;5.50;2.40;;;-1.30;99.90;;;;;;5094518;28;20056;-73
2024/01/09 11:20:14;;;;;;;6.07;2.70;;;-1.20;99.90;;;;;;5094496;28;20055;-73
2024/01/09 11:22:40;;;;;;;5.53;2.63;;;-1.20;99.90;;;;;;5094192;28;20047;-73
2024/01/09 11:25:15;;;;;;;6.30;3.07;;;-1.20;99.90;;;;;;5094368;28;20044;-73
2024/01/09 11:27:42;;;;;;;6.05;2.75;;;-1.10;99.90;;;;;;5094591;28;20123;-73
2024/01/09 11:30:13;;;;;;;8.20;3.13;;;-0.90;99.90;;;;;;5094077;28;20058;-74
2024/01/09 11:32:40;;;;;;;6.30;2.88;;;-1.10;99.90;;;;;;5094149;28;20422;-74
2024/01/09 11:35:17;;;;;;;5.07;2.63;;;-1.00;99.90;;;;;;5093977;28;20048;-73
2024/01/09 11:37:46;;;;;;;7.82;3.58;;;-1.00;99.90;;;;;;5094143;28;20052;-74
2024/01/09 11:40:13;;;;;;;7.90;3.33;;;-1.00;99.90;;;;;;5094109;28;20051;-74
2024/01/09 11:42:46;;;;;;;5.60;2.63;;;-0.90;99.90;;;;;;5093856;28;20048;-74
2024/01/09 11:45:18;;;;;;;6.63;3.42;;;-0.80;99.90;;;;;;5093862;28;20049;-73
2024/01/09 11:47:44;;;;;;;5.10;2.50;;;-0.80;99.90;;;;;;5092828;28;20096;-73
2024/01/09 11:50:11;;;;;;;9.87;2.13;;;-0.80;99.90;;;;;;5093932;28;20042;-73
2024/01/09 11:52:37;;;;;;;11.15;2.30;;;-0.80;99.00;;;;;;5093637;28;20055;-74
2024/01/09 11:55:10;;;;;;;6.75;2.65;;;-0.70;99.90;;;;;;5094049;28;20409;-73
2024/01/09 11:57:39;;;;;;;8.00;2.53;;;-0.60;97.80;;;;;;5092973;28;20494;-81
2024/01/09 12:00:07;;;;;;;7.22;2.28;;;-0.60;99.40;;;;;;5093490;28;20089;-73
2024/01/09 12:02:34;;;;;;;4.97;2.28;;;-0.60;98.80;;;;;;5093100;28;20440;-72
2024/01/09 12:05:02;;;;;;;7.13;2.22;;;-0.60;99.40;;;;;;5093695;28;20512;-70
2024/01/09 12:07:27;;;;;;;8.07;2.97;;;-0.60;97.50;;;;;;5093469;28;20127;-70
2024/01/09 12:09:53;;;;;;;5.00;2.03;;;-0.50;96.90;;;;;;5093480;28;20132;-74
2024/01/09 12:12:24;;;;;;;4.60;1.90;;;-0.50;97.50;;;;;;5091694;28;20101;-73
2024/01/09 12:14:54;;;;;;;5.38;2.40;;;-0.50;97.50;;;;;;5092644;28;20032;-74
2024/01/09 12:17:27;;;;;;;4.72;2.17;;;-0.40;96.90;;;;;;5093443;28;20109;-72
2024/01/09 12:19:56;;;;;;;7.03;2.45;;;-0.40;97.10;;;;;;5093780;28;20451;-72
2024/01/09 12:22:22;;;;;;;4.25;2.03;;;-0.30;96.70;;;;;;5093131;28;20054;-71
2024/01/09 12:24:52;;;;;;;6.05;2.55;;;-0.50;99.30;;;;;;5093265;28;20082;-72
2024/01/09 12:27:20;;;;;;;3.25;1.67;;;-0.40;98.30;;;;;;5093028;28;20497;-73
2024/01/09 12:29:46;;;;;;;3.92;1.80;;;-0.50;98.80;;;;;;5093251;28;20048;-72
2024/01/09 12:32:13;;;;;;;5.13;2.15;;;-0.40;97.10;;;;;;5093354;28;20146;-73
2024/01/09 12:34:39;;;;;;;4.28;1.85;;;-0.30;96.80;;;;;;5093068;28;20382;-73
2024/01/09 12:37:08;;;;;;;4.07;1.83;;;-0.30;97.30;;;;;;5093205;28;20051;-73
2024/01/09 12:39:35;;;;;;;5.68;2.55;;;-0.20;96.50;;;;;;5092511;28;20044;-73
2024/01/09 12:42:15;;;;;;;5.03;2.10;;;-0.30;97.60;;;;;;5092999;28;20040;-75